Time;durP1;ratioP1;P1;durP2;ratioP2;P2;SDS_P1;SDS_P2;PMS_P1;PMS_P2;Temp;Humidity;BMP_temperature;BMP_pressure;BME280_temperature;BME280_humidity;BME280_pressure;Samples;Min_cycle;Max_cycle;Signal;HPM_P1;HPM_P2
2020/12/31 00:00:07;;;;;;;;;;;;;;;0.31;100.00;99751.59;5051436;28;19956;-69
2020/12/31 00:02:33;;;;;;;;;;;;;;;0.32;100.00;99755.13;5052559;28;20297;-70
2020/12/31 00:04:58;;;;;;;;;;;;;;;0.32;100.00;99750.66;5052496;28;19948;-70
2020/12/31 00:07:24;;;;;;;;;;;;;;;0.36;100.00;99759.38;5052271;28;20410;-69
2020/12/31 00:09:50;;;;;;;;;;;;;;;0.39;100.00;99758.31;5052384;28;19932;-70
2020/12/31 00:12:16;;;;;;;;;;;;;;;0.43;100.00;99765.25;5052197;28;20027;-69
2020/12/31 00:14:42;;;;;;;;;;;;;;;0.47;100.00;99761.44;5052009;28;19928;-69
2020/12/31 00:17:08;;;;;;;;;;;;;;;0.50;100.00;99756.78;5052014;28;19956;-69
2020/12/31 00:19:34;;;;;;;;;;;;;;;0.56;100.00;99766.28;5051879;28;19925;-69
2020/12/31 00:22:00;;;;;;;;;;;;;;;0.58;100.00;99764.38;5052309;28;19928;-69
2020/12/31 00:24:26;;;;;;;;;;;;;;;0.59;100.00;99770.56;5052003;28;19925;-70
2020/12/31 00:26:52;;;;;;;;;;;;;;;0.58;100.00;99761.72;5051801;28;19924;-70
2020/12/31 00:29:17;;;;;;;;;;;;;;;0.60;100.00;99769.63;5051844;28;19955;-69
2020/12/31 00:31:44;;;;;;;;;;;;;;;0.58;100.00;99768.88;5051643;28;20566;-69
2020/12/31 00:34:10;;;;;;;;;;;;;;;0.58;100.00;99771.53;5051591;28;19925;-69
2020/12/31 00:36:35;;;;;;;;;;;;;;;0.58;100.00;99767.06;5051658;28;19932;-69
2020/12/31 00:39:02;;;;;;;;;;;;;;;0.62;100.00;99775.78;5051720;28;19925;-70
2020/12/31 00:41:28;;;;;;;;;;;;;;;0.62;100.00;99773.94;5051707;28;20011;-69
2020/12/31 00:43:55;;;;;;;;;;;;;;;0.64;100.00;99776.53;5051776;28;19955;-69
2020/12/31 00:46:20;;;;;;;;;;;;;;;0.63;100.00;99773.00;5051564;28;19933;-69
2020/12/31 00:48:47;;;;;;;;;;;;;;;0.64;100.00;99774.75;5050377;28;20297;-69
2020/12/31 00:51:13;;;;;;;;;;;;;;;0.65;100.00;99778.25;5051653;28;20274;-69
2020/12/31 00:53:40;;;;;;;;;;;;;;;0.65;100.00;99773.78;5050509;28;19932;-69
2020/12/31 00:56:07;;;;;;;;;;;;;;;0.65;100.00;99776.44;5050392;28;20019;-69
2020/12/31 00:58:37;;;;;;;;;;;;;;;0.67;100.00;99784.41;5050465;28;19932;-69
2020/12/31 01:01:03;;;;;;;;;;;;;;;0.67;100.00;99781.72;5050432;28;19925;-69
2020/12/31 01:03:29;;;;;;;;;;;;;;;0.70;100.00;99773.53;5051599;28;19924;-70
2020/12/31 01:05:55;;;;;;;;;;;;;;;0.73;100.00;99780.50;5051390;28;19932;-69
2020/12/31 01:08:21;;;;;;;;;;;;;;;0.76;100.00;99786.56;5051260;28;20016;-70
2020/12/31 01:10:47;;;;;;;;;;;;;;;0.79;100.00;99783.72;5051258;28;20286;-69
2020/12/31 01:13:13;;;;;;;;;;;;;;;0.82;100.00;99785.34;5051213;28;19925;-69
2020/12/31 01:15:39;;;;;;;;;;;;;;;0.84;100.00;99783.44;5048402;28;20301;-70
2020/12/31 01:18:04;;;;;;;;;;;;;;;0.86;100.00;99786.91;5051456;28;19925;-69
2020/12/31 01:20:30;;;;;;;;;;;;;;;0.87;100.00;99790.41;5051300;28;20402;-69
2020/12/31 01:22:57;;;;;;;;;;;;;;;0.88;100.00;99786.81;5051439;28;19925;-69
2020/12/31 01:25:23;;;;;;;;;;;;;;;0.88;100.00;99782.31;5051217;28;20078;-69
2020/12/31 01:27:49;;;;;;;;;;;;;;;0.89;100.00;99780.53;5050890;28;20503;-69
2020/12/31 01:30:15;;;;;;;;;;;;;;;0.87;100.00;99779.72;5051199;28;19932;-69
2020/12/31 01:32:41;;;;;;;;;;;;;;;0.84;100.00;99783.44;5051310;28;19925;-70
2020/12/31 01:35:06;;;;;;;;;;;;;;;0.80;100.00;99796.13;5051404;28;19925;-69
2020/12/31 01:37:32;;;;;;;;;;;;;;;0.73;100.00;99792.06;5051051;28;19936;-69
2020/12/31 01:39:59;;;;;;;;;;;;;;;0.71;100.00;99790.41;5051228;28;19928;-69
2020/12/31 01:42:25;;;;;;;;;;;;;;;0.71;100.00;99801.09;5051243;28;20027;-69
2020/12/31 01:44:50;;;;;;;;;;;;;;;0.72;100.00;99797.47;5052214;28;19925;-69
2020/12/31 01:47:17;;;;;;;;;;;;;;;0.74;100.00;99795.59;5054919;28;20023;-69
2020/12/31 01:49:44;;;;;;;;;;;;;;;0.76;100.00;99799.91;5055245;28;20023;-69
2020/12/31 01:52:12;;;;;;;;;;;;;;;0.79;100.00;99794.41;5055439;28;20358;-69
2020/12/31 01:54:38;;;;;;;;;;;;;;;0.82;100.00;99807.56;5055306;28;19963;-69
2020/12/31 01:57:05;;;;;;;;;;;;;;;0.81;100.00;99800.50;5055094;28;19932;-69
2020/12/31 01:59:31;;;;;;;;;;;;;;;0.82;100.00;99796.88;5055116;28;20027;-69
2020/12/31 02:01:56;;;;;;;;;;;;;;;0.83;100.00;99792.41;5055313;28;19932;-69
2020/12/31 02:04:22;;;;;;;;;;;;;;;0.82;100.00;99802.22;5054996;28;19925;-69
2020/12/31 02:06:51;;;;;;;;;;;;;;;0.81;100.00;99800.50;5054992;28;19924;-70
2020/12/31 02:09:17;;;;;;;;;;;;;;;0.82;100.00;99802.22;5054973;28;20386;-70
2020/12/31 02:11:42;;;;;;;;;;;;;;;0.83;100.00;99808.47;5055058;28;19931;-70
2020/12/31 02:14:09;;;;;;;;;;;;;;;0.82;100.00;99810.25;5055029;28;19926;-69
2020/12/31 02:16:36;;;;;;;;;;;;;;;0.82;100.00;99807.56;5054594;28;19925;-69
2020/12/31 02:19:04;;;;;;;;;;;;;;;0.83;100.00;99809.31;5054690;28;19967;-69
2020/12/31 02:21:31;;;;;;;;;;;;;;;0.85;100.00;99803.88;5054537;28;19972;-69
2020/12/31 02:23:58;;;;;;;;;;;;;;;0.88;100.00;99803.69;5054681;28;19925;-69
2020/12/31 02:26:24;;;;;;;;;;;;;;;0.90;100.00;99806.31;5054680;28;20369;-69
2020/12/31 02:28:50;;;;;;;;;;;;;;;0.92;100.00;99799.94;5054792;28;19925;-69
2020/12/31 02:31:16;;;;;;;;;;;;;;;0.94;100.00;99805.19;5054692;28;19995;-69
2020/12/31 02:33:43;;;;;;;;;;;;;;;0.96;100.00;99801.47;5054546;28;19929;-70
2020/12/31 02:36:09;;;;;;;;;;;;;;;0.98;100.00;99802.25;5054436;28;19994;-69
2020/12/31 02:38:34;;;;;;;;;;;;;;;1.00;100.00;99802.16;5054452;28;19925;-69
2020/12/31 02:41:01;;;;;;;;;;;;;;;1.03;100.00;99806.47;5054035;28;19932;-69
2020/12/31 02:43:27;;;;;;;;;;;;;;;1.06;100.00;99798.28;5054366;28;19975;-69
2020/12/31 02:45:53;;;;;;;;;;;;;;;1.07;100.00;99800.00;5054247;28;19925;-69
2020/12/31 02:48:18;;;;;;;;;;;;;;;1.08;100.00;99804.38;5054370;28;19932;-70
2020/12/31 02:50:44;;;;;;;;;;;;;;;1.08;100.00;99813.28;5054115;28;20291;-70
2020/12/31 02:53:10;;;;;;;;;;;;;;;1.09;100.00;99809.66;5054258;28;19929;-70
2020/12/31 02:55:36;;;;;;;;;;;;;;;1.10;100.00;99805.19;5053393;28;19932;-69
2020/12/31 02:58:02;;;;;;;;;;;;;;;1.10;100.00;99808.72;5054102;28;19924;-69
2020/12/31 03:00:28;;;;;;;;;;;;;;;1.12;100.00;99816.63;5054004;28;19960;-69
2020/12/31 03:02:54;;;;;;;;;;;;;;;1.10;100.00;99811.38;5054045;28;19948;-69
2020/12/31 03:05:20;;;;;;;;;;;;;;;1.08;100.00;99807.94;5054093;28;19925;-70
2020/12/31 03:07:46;;;;;;;;;;;;;;;1.07;100.00;99808.88;5050641;28;19951;-69
2020/12/31 03:10:11;;;;;;;;;;;;;;;1.06;100.00;99814.31;5053805;28;20027;-69
2020/12/31 03:12:37;;;;;;;;;;;;;;;1.04;100.00;99805.50;5053848;28;19960;-70
2020/12/31 03:15:06;;;;;;;;;;;;;;;1.01;100.00;99806.56;5052602;28;20365;-69
2020/12/31 03:17:32;;;;;;;;;;;;;;;1.01;100.00;99809.22;5053589;28;19968;-69
2020/12/31 03:19:58;;;;;;;;;;;;;;;0.98;100.00;99810.25;5053639;28;19924;-69
2020/12/31 03:22:24;;;;;;;;;;;;;;;1.00;100.00;99804.81;5053669;28;20382;-69
2020/12/31 03:24:49;;;;;;;;;;;;;;;1.00;100.00;99810.16;5053604;28;19925;-69
2020/12/31 03:27:15;;;;;;;;;;;;;;;1.00;100.00;99811.03;5053438;28;19924;-70
2020/12/31 03:29:41;;;;;;;;;;;;;;;1.01;100.00;99809.22;5052110;28;19936;-69
2020/12/31 03:32:07;;;;;;;;;;;;;;;1.02;100.00;99810.06;5053597;28;19925;-69
2020/12/31 03:34:33;;;;;;;;;;;;;;;1.02;100.00;99807.41;5053170;28;20006;-69
2020/12/31 03:36:59;;;;;;;;;;;;;;;1.04;100.00;99805.50;5053238;28;19928;-69
2020/12/31 03:39:25;;;;;;;;;;;;;;;1.05;100.00;99808.09;5053328;28;20294;-69
2020/12/31 03:41:51;;;;;;;;;;;;;;;1.06;100.00;99804.47;5053351;28;19932;-69
2020/12/31 03:44:16;;;;;;;;;;;;;;;1.08;100.00;99813.28;5053358;28;19978;-69
2020/12/31 03:46:42;;;;;;;;;;;;;;;1.12;100.00;99816.63;5052954;28;19935;-70
2020/12/31 03:49:09;;;;;;;;;;;;;;;1.12;100.00;99813.97;5053045;28;20378;-69
2020/12/31 03:51:35;;;;;;;;;;;;;;;1.12;100.00;99814.84;5052836;28;19924;-69
2020/12/31 03:54:00;;;;;;;;;;;;;;;1.13;100.00;99821.88;5053042;28;19928;-69
2020/12/31 03:56:26;;;;;;;;;;;;;;;1.15;100.00;99827.19;5052799;28;19925;-69
2020/12/31 03:58:52;;;;;;;;;;;;;;;1.13;100.00;99816.53;5052922;28;19948;-70
2020/12/31 04:01:18;;;;;;;;;;;;;;;1.13;100.00;99821.88;5053037;28;19925;-70
2020/12/31 04:03:44;;;;;;;;;;;;;;;1.12;100.00;99809.50;5052829;28;20417;-70
2020/12/31 04:06:10;;;;;;;;;;;;;;;1.13;100.00;99810.34;5052738;28;19983;-70
2020/12/31 04:08:36;;;;;;;;;;;;;;;1.13;100.00;99813.88;5051585;28;20409;-69
2020/12/31 04:11:02;;;;;;;;;;;;;;;1.14;100.00;99812.94;5052723;28;19924;-69
2020/12/31 04:13:28;;;;;;;;;;;;;;;1.12;100.00;99806.81;5052689;28;19925;-69
2020/12/31 04:15:53;;;;;;;;;;;;;;;1.12;100.00;99808.63;5052563;28;19932;-69
2020/12/31 04:18:19;;;;;;;;;;;;;;;1.11;100.00;99805.09;5052592;28;20394;-69
2020/12/31 04:20:45;;;;;;;;;;;;;;;1.10;100.00;99814.06;5052331;28;19924;-70
2020/12/31 04:23:12;;;;;;;;;;;;;;;1.11;100.00;99813.13;5052569;28;19928;-69
2020/12/31 04:25:37;;;;;;;;;;;;;;;1.10;100.00;99814.06;5052408;28;20015;-70
2020/12/31 04:28:03;;;;;;;;;;;;;;;1.09;100.00;99815.00;5052211;28;19925;-70
2020/12/31 04:30:29;;;;;;;;;;;;;;;1.08;100.00;99817.75;5052323;28;19967;-69
2020/12/31 04:32:55;;;;;;;;;;;;;;;1.07;100.00;99816.91;5052538;28;19925;-69
2020/12/31 04:35:20;;;;;;;;;;;;;;;1.07;100.00;99826.72;5052281;28;20011;-69
2020/12/31 04:37:46;;;;;;;;;;;;;;;1.08;100.00;99828.44;5052137;28;19932;-69
2020/12/31 04:40:13;;;;;;;;;;;;;;;1.08;100.00;99826.66;5052276;28;20378;-69
2020/12/31 04:42:38;;;;;;;;;;;;;;;1.08;100.00;99831.13;5052177;28;19947;-69
2020/12/31 04:45:05;;;;;;;;;;;;;;;1.08;100.00;99829.34;5052286;28;20325;-69
2020/12/31 04:47:36;;;;;;;;;;;;;;;1.07;100.00;99832.94;5051767;28;19928;-69
2020/12/31 04:50:02;;;;;;;;;;;;;;;1.05;100.00;99831.31;5051948;28;19940;-70
2020/12/31 04:52:31;;;;;;;;;;;;;;;1.04;100.00;99833.09;5052203;28;20016;-70
2020/12/31 04:54:57;;;;;;;;;;;;;;;1.04;100.00;99832.25;5052015;28;20023;-70
2020/12/31 04:57:23;;;;;;;;;;;;;;;1.01;100.00;99835.94;5051856;28;19925;-69
2020/12/31 04:59:49;;;;;;;;;;;;;;;0.99;100.00;99836.03;5051886;28;19986;-70
2020/12/31 05:02:15;;;;;;;;;;;;;;;0.99;100.00;99843.22;5051940;28;19940;-69
2020/12/31 05:04:41;;;;;;;;;;;;;;;0.98;100.00;99850.34;5051632;28;19990;-70
2020/12/31 05:07:07;;;;;;;;;;;;;;;0.97;100.00;99858.47;5051678;28;19924;-70
2020/12/31 05:09:33;;;;;;;;;;;;;;;0.95;100.00;99852.31;5051648;28;19983;-68
2020/12/31 05:11:59;;;;;;;;;;;;;;;0.92;100.00;99849.81;5051950;28;19925;-68
2020/12/31 05:14:32;;;;;;;;;;;;;;;0.89;100.00;99856.19;5051794;28;19931;-68
2020/12/31 05:17:11;;;;;;;;;;;;;;;0.88;100.00;99859.81;5049932;28;20398;-68
2020/12/31 05:19:37;;;;;;;;;;;;;;;0.87;100.00;99867.91;5033985;28;19936;-68
2020/12/31 05:22:10;;;;;;;;;;;;;;;0.83;100.00;99861.91;5034569;28;20036;-68
2020/12/31 05:24:36;;;;;;;;;;;;;;;0.77;100.00;99865.75;5035867;28;19927;-70
2020/12/31 05:27:14;;;;;;;;;;;;;;;0.74;100.00;99868.59;5035811;28;20394;-70
2020/12/31 05:29:41;;;;;;;;;;;;;;;0.75;100.00;99872.13;5035905;28;19929;-70
2020/12/31 05:32:07;;;;;;;;;;;;;;;0.75;100.00;99873.00;5035757;28;19957;-69
2020/12/31 05:34:33;;;;;;;;;;;;;;;0.78;100.00;99880.84;5035734;28;20545;-69
2020/12/31 05:37:12;;;;;;;;;;;;;;;0.81;100.00;99877.97;5048402;28;19931;-69
2020/12/31 05:39:53;;;;;;;;;;;;;;;0.86;100.00;99882.25;5054887;28;19964;-69
2020/12/31 05:42:19;;;;;;;;;;;;;;;0.89;100.00;99877.56;5056185;28;19975;-69
2020/12/31 05:44:58;;;;;;;;;;;;;;;0.92;100.00;99877.44;5055633;28;19959;-69
2020/12/31 05:47:24;;;;;;;;;;;;;;;0.97;100.00;99879.84;5054824;28;20374;-69
2020/12/31 05:49:51;;;;;;;;;;;;;;;0.97;100.00;99878.00;5054740;28;19925;-69
2020/12/31 05:52:31;;;;;;;;;;;;;;;0.97;100.00;99888.69;5055421;28;20406;-69
2020/12/31 05:54:59;;;;;;;;;;;;;;;0.94;100.00;99882.69;5052150;28;20011;-69
2020/12/31 05:57:34;;;;;;;;;;;;;;;0.91;100.00;99888.19;5054628;28;19925;-70
2020/12/31 06:00:01;;;;;;;;;;;;;;;0.85;100.00;99888.53;5049493;28;20011;-69
2020/12/31 06:02:26;;;;;;;;;;;;;;;0.81;100.00;99891.34;5039838;28;20574;-70
2020/12/31 06:04:56;;;;;;;;;;;;;;;0.78;100.00;99891.53;5042631;28;19925;-69
2020/12/31 06:07:29;;;;;;;;;;;;;;;0.79;100.00;99901.28;5043814;28;20422;-69
2020/12/31 06:10:02;;;;;;;;;;;;;;;0.76;100.00;99901.44;5043482;28;19933;-69
2020/12/31 06:12:29;;;;;;;;;;;;;;;0.71;100.00;99900.81;5041938;28;19968;-69
2020/12/31 06:15:07;;;;;;;;;;;;;;;0.67;100.00;99904.59;5034995;28;19925;-69
2020/12/31 06:17:39;;;;;;;;;;;;;;;0.60;100.00;99900.50;5034662;28;19956;-69
2020/12/31 06:20:11;;;;;;;;;;;;;;;0.50;100.00;99900.16;5034733;28;20425;-69
2020/12/31 06:22:46;;;;;;;;;;;;;;;0.44;100.00;99904.00;5034955;28;20015;-69
2020/12/31 06:25:26;;;;;;;;;;;;;;;0.37;100.00;99902.59;5034854;28;19956;-69
2020/12/31 06:27:52;;;;;;;;;;;;;;;0.31;100.00;99906.44;5034571;28;19983;-69
2020/12/31 06:30:20;;;;;;;;;;;;;;;0.23;100.00;99905.97;5034069;28;20366;-69
2020/12/31 06:32:47;;;;;;;;;;;;;;;0.15;100.00;99909.03;5034423;28;19969;-69
2020/12/31 06:35:17;;;;;;;;;;;;;;;0.01;100.00;99906.19;5034562;28;19956;-69
2020/12/31 06:37:55;;;;;;;;;;;;;;;-0.12;100.00;99907.75;5034473;28;19967;-69
2020/12/31 06:40:22;;;;;;;;;;;;;;;-0.23;100.00;99914.50;5033871;28;20028;-69
2020/12/31 06:43:06;;;;;;;;;;;;;;;-0.32;100.00;99912.31;5045885;28;19935;-69
2020/12/31 06:45:36;;;;;;;;;;;;;;;-0.39;100.00;99916.19;5052507;28;20340;-69
2020/12/31 06:48:03;;;;;;;;;;;;;;;-0.46;100.00;99915.63;5054080;28;19971;-70
2020/12/31 06:50:44;;;;;;;;;;;;;;;-0.47;100.00;99929.03;5053574;28;20466;-69
2020/12/31 06:53:25;;;;;;;;;;;;;;;-0.46;100.00;99936.09;5053873;28;19959;-70
2020/12/31 06:55:50;;;;;;;;;;;;;;;-0.43;100.00;99923.47;5053729;28;20174;-70
2020/12/31 06:58:23;;;;;;;;;;;;;;;-0.35;100.00;99937.31;5039750;28;19926;-70
2020/12/31 07:00:49;;;;;;;;;;;;;;;-0.26;100.00;99929.78;5047330;28;19925;-69
2020/12/31 07:03:15;;;;;;;;;;;;;;;-0.20;100.00;99935.69;5053881;28;19925;-69
2020/12/31 07:05:41;;;;;;;;;;;;;;;-0.10;100.00;99936.09;5053322;28;19956;-70
2020/12/31 07:08:07;;;;;;;;;;;;;;;-0.01;100.00;99937.47;5037294;28;19932;-69
2020/12/31 07:10:43;;;;;;;;;;;;;;;0.03;100.00;99944.38;5042717;28;19929;-69
2020/12/31 07:13:28;;;;;;;;;;;;;;;0.06;100.00;99941.53;5053207;28;19964;-69
2020/12/31 07:15:54;;;;;;;;;;;;;;;0.08;100.00;99939.66;5049108;28;19968;-69
2020/12/31 07:18:21;;;;;;;;;;;;;;;0.12;100.00;99945.69;5048159;28;19932;-70
2020/12/31 07:20:48;;;;;;;;;;;;;;;0.18;100.00;99944.53;5051173;28;20375;-70
2020/12/31 07:23:14;;;;;;;;;;;;;;;0.23;100.00;99942.47;5040120;28;19925;-69
2020/12/31 07:25:43;;;;;;;;;;;;;;;0.26;100.00;99947.69;5042051;28;19948;-69
2020/12/31 07:28:15;;;;;;;;;;;;;;;0.31;100.00;99946.50;5040904;28;20452;-69
2020/12/31 07:30:49;;;;;;;;;;;;;;;0.36;100.00;99951.63;5034551;28;20379;-69
2020/12/31 07:33:33;;;;;;;;;;;;;;;0.41;100.00;99952.22;5044395;28;20015;-70
2020/12/31 07:35:59;;;;;;;;;;;;;;;0.44;100.00;99952.09;5049665;28;19964;-70
2020/12/31 07:38:26;;;;;;;;;;;;;;;0.47;100.00;99943.06;5052597;28;20367;-70
2020/12/31 07:40:52;;;;;;;;;;;;;;;0.50;100.00;99948.22;5049607;28;19975;-69
2020/12/31 07:43:19;;;;;;;;;;;;;;;0.55;100.00;99950.63;5044796;28;19931;-70
2020/12/31 07:45:46;;;;;;;;;;;;;;;0.61;100.00;99948.50;5048282;28;19929;-69
2020/12/31 07:48:12;;;;;;;;;;;;;;;0.70;100.00;99951.66;5043462;28;19932;-70
2020/12/31 07:50:38;;;;;;;;;;;;;;;0.77;100.00;99947.72;5052620;28;20024;-69
2020/12/31 07:53:05;;;;;;;;;;;;;;;0.81;100.00;99949.28;5051876;28;19929;-69
2020/12/31 07:55:32;;;;;;;;;;;;;;;0.86;100.00;99946.38;5043624;28;20019;-69
2020/12/31 07:57:58;;;;;;;;;;;;;;;0.85;100.00;99941.97;5052707;28;20405;-69
2020/12/31 08:00:24;;;;;;;;;;;;;;;0.76;100.00;99946.88;5052157;28;20409;-69
2020/12/31 08:02:51;;;;;;;;;;;;;;;0.61;100.00;99937.81;5052370;28;19931;-70
2020/12/31 08:05:18;;;;;;;;;;;;;;;0.53;100.00;99947.19;5051794;28;19925;-69
2020/12/31 08:07:44;;;;;;;;;;;;;;;0.41;100.00;99951.38;5051953;28;19932;-69
2020/12/31 08:10:11;;;;;;;;;;;;;;;0.38;100.00;99952.38;5052506;28;19971;-69
2020/12/31 08:12:39;;;;;;;;;;;;;;;0.31;100.00;99953.66;5052658;28;19955;-70
2020/12/31 08:15:05;;;;;;;;;;;;;;;0.25;100.00;99962.81;5052538;28;20386;-70
2020/12/31 08:17:31;;;;;;;;;;;;;;;0.14;100.00;99966.03;5052235;28;20493;-70
2020/12/31 08:19:57;;;;;;;;;;;;;;;0.09;100.00;99962.72;5052337;28;19932;-70
2020/12/31 08:22:25;;;;;;;;;;;;;;;0.03;100.00;99971.06;5052129;28;19960;-70
2020/12/31 08:24:56;;;;;;;;;;;;;;;0.06;100.00;99976.22;5052405;28;19960;-70
2020/12/31 08:27:23;;;;;;;;;;;;;;;0.06;100.00;99972.72;5052084;28;19925;-70
2020/12/31 08:29:49;;;;;;;;;;;;;;;0.07;100.00;99966.44;5052177;28;20017;-70
2020/12/31 08:32:25;;;;;;;;;;;;;;;0.08;100.00;99971.69;5052368;28;19968;-70
2020/12/31 08:34:54;;;;;;;;;;;;;;;0.10;100.00;99972.47;5052487;28;19964;-70
2020/12/31 08:37:21;;;;;;;;;;;;;;;0.07;100.00;99972.63;5050867;28;19940;-70
2020/12/31 08:39:49;;;;;;;;;;;;;;;0.07;100.00;99972.63;5041062;28;19968;-71
2020/12/31 08:42:16;;;;;;;;;;;;;;;0.06;100.00;99978.03;5037519;28;19932;-69
2020/12/31 08:44:43;;;;;;;;;;;;;;;0.06;100.00;99978.91;5042648;28;20352;-70
2020/12/31 08:47:16;;;;;;;;;;;;;;;0.09;100.00;99989.41;5046599;28;19954;-70
2020/12/31 08:49:49;;;;;;;;;;;;;;;0.09;100.00;99980.56;5051811;28;19932;-70
2020/12/31 08:52:15;;;;;;;;;;;;;;;0.11;100.00;99976.00;5051982;28;19964;-70
2020/12/31 08:54:40;;;;;;;;;;;;;;;0.11;100.00;99990.22;5050381;28;19925;-70
2020/12/31 08:57:13;;;;;;;;;;;;;;;0.11;100.00;99986.69;5051366;28;19925;-70
2020/12/31 08:59:39;;;;;;;;;;;;;;;0.15;100.00;99982.94;5051724;28;19929;-69
2020/12/31 09:02:06;;;;;;;;;;;;;;;0.12;100.00;99978.59;5051830;28;19925;-70
2020/12/31 09:04:32;;;;;;;;;;;;;;;0.12;100.00;99978.59;5051805;28;19974;-70
2020/12/31 09:07:08;;;;;;;;;;;;;;;0.11;100.00;99979.53;5051561;28;19932;-70
2020/12/31 09:09:34;;;;;;;;;;;;;;;0.12;100.00;99981.28;5051183;28;19983;-69
2020/12/31 09:12:01;;;;;;;;;;;;;;;0.20;100.00;99982.69;5040300;28;19998;-70
2020/12/31 09:14:28;;;;;;;;;;;;;;;0.22;100.00;99980.81;5031294;28;19925;-69
2020/12/31 09:16:54;;;;;;;;;;;;;;;0.23;100.00;99983.41;5031279;28;19971;-69
2020/12/31 09:19:21;;;;;;;;;;;;;;;0.29;100.00;99980.41;5031570;28;20401;-69
2020/12/31 09:21:47;;;;;;;;;;;;;;;0.32;100.00;99979.38;5031738;28;19978;-69
2020/12/31 09:24:13;;;;;;;;;;;;;;;0.42;100.00;99979.81;5031668;28;20020;-69
2020/12/31 09:26:39;;;;;;;;;;;;;;;0.47;100.00;99983.97;5043280;28;19967;-69
2020/12/31 09:29:08;;;;;;;;;;;;;;;0.50;100.00;99982.94;5051496;28;20310;-69
2020/12/31 09:31:35;;;;;;;;;;;;;;;0.55;100.00;99975.56;5051189;28;20015;-69
2020/12/31 09:34:00;;;;;;;;;;;;;;;0.61;100.00;99977.91;5051455;28;19932;-69
2020/12/31 09:36:27;;;;;;;;;;;;;;;0.68;100.00;99978.44;5045336;28;19925;-69
2020/12/31 09:38:53;;;;;;;;;;;;;;;0.80;100.00;99977.81;5031455;28;20378;-69
2020/12/31 09:41:19;;;;;;;;;;;;;;;0.86;100.00;99973.97;5031517;28;19933;-69
2020/12/31 09:43:45;;;;;;;;;;;;;;;0.98;100.00;99972.44;5031372;28;20476;-70
2020/12/31 09:46:11;;;;;;;;;;;;;;;1.12;100.00;99958.31;5031222;28;19929;-69
2020/12/31 09:48:37;;;;;;;;;;;;;;;1.25;100.00;99963.88;5031527;28;19925;-70
2020/12/31 09:51:03;;;;;;;;;;;;;;;1.25;100.00;99966.56;5031331;28;19929;-69
2020/12/31 09:53:29;;;;;;;;;;;;;;;1.37;100.00;99955.16;5031060;28;19925;-69
2020/12/31 09:55:55;;;;;;;;;;;;;;;1.39;100.00;99957.75;5031147;28;20024;-69
2020/12/31 09:58:21;;;;;;;;;;;;;;;1.50;100.00;99950.88;5031179;28;19929;-69
2020/12/31 10:00:47;;;;;;;;;;;;;;;1.58;100.00;99941.56;5031146;28;20355;-70
2020/12/31 10:03:12;;;;;;;;;;;;;;;1.61;100.00;99944.06;5031394;28;19925;-69
2020/12/31 10:05:38;;;;;;;;;;;;;;;1.66;100.00;99933.97;5031712;28;19925;-69
2020/12/31 10:08:04;;;;;;;;;;;;;;;1.75;100.00;99933.44;5035069;28;19932;-70
2020/12/31 10:10:31;;;;;;;;;;;;;;;1.84;100.00;99935.59;5034417;28;20410;-70
2020/12/31 10:12:56;;;;;;;;;;;;;;;1.96;100.00;99933.13;5034897;28;20294;-69
2020/12/31 10:15:22;;;;;;;;;;;;;;;2.07;100.00;99936.06;5034838;28;19925;-69
2020/12/31 10:17:48;;;;;;;;;;;;;;;2.14;100.00;99937.44;5034727;28;19925;-69
2020/12/31 10:20:14;;;;;;;;;;;;;;;2.16;100.00;99935.53;5034707;28;19940;-70
2020/12/31 10:22:39;;;;;;;;;;;;;;;2.34;100.00;99932.72;5034949;28;19932;-70
2020/12/31 10:25:05;;;;;;;;;;;;;;;2.39;100.00;99929.75;5034748;28;19932;-70
2020/12/31 10:27:34;;;;;;;;;;;;;;;2.52;100.00;99930.72;5034457;28;19956;-70
2020/12/31 10:30:00;;;;;;;;;;;;;;;2.53;100.00;99924.44;5034349;28;19928;-70
2020/12/31 10:32:26;;;;;;;;;;;;;;;2.49;100.00;99923.75;5034552;28;19925;-70
2020/12/31 10:34:52;;;;;;;;;;;;;;;2.57;100.00;99931.31;5034498;28;19931;-70
2020/12/31 10:37:17;;;;;;;;;;;;;;;2.63;100.00;99916.69;5033118;28;19932;-69
2020/12/31 10:39:43;;;;;;;;;;;;;;;2.71;100.00;99921.56;5037106;28;19952;-69
2020/12/31 10:42:09;;;;;;;;;;;;;;;2.64;100.00;99923.78;5034204;28;19925;-69
2020/12/31 10:44:36;;;;;;;;;;;;;;;2.75;100.00;99921.28;5034060;28;19937;-69
2020/12/31 10:47:01;;;;;;;;;;;;;;;2.90;100.00;99906.09;5034139;28;19968;-70
2020/12/31 10:49:27;;;;;;;;;;;;;;;2.93;100.00;99905.88;5045100;28;19948;-69
2020/12/31 10:51:53;;;;;;;;;;;;;;;2.99;100.00;99904.63;5054095;28;19925;-69
2020/12/31 10:54:19;;;;;;;;;;;;;;;2.98;100.00;99898.41;5054260;28;20320;-69
2020/12/31 10:56:45;;;;;;;;;;;;;;;3.01;100.00;99894.69;5052886;28;19928;-69
2020/12/31 10:59:10;;;;;;;;;;;;;;;2.97;100.00;99888.66;5048310;28;19931;-69
2020/12/31 11:01:37;;;;;;;;;;;;;;;2.89;100.00;99885.59;5049409;28;20394;-69
2020/12/31 11:04:03;;;;;;;;;;;;;;;2.93;100.00;99883.59;5048617;28;19931;-70
2020/12/31 11:06:30;;;;;;;;;;;;;;;3.00;100.00;99882.22;5042169;28;19925;-69
2020/12/31 11:08:56;;;;;;;;;;;;;;;3.06;100.00;99884.53;5033753;28;20379;-69
2020/12/31 11:11:22;;;;;;;;;;;;;;;3.15;100.00;99877.72;5048680;28;19935;-70
2020/12/31 11:13:48;;;;;;;;;;;;;;;3.28;100.00;99873.28;5053821;28;19960;-70
2020/12/31 11:16:14;;;;;;;;;;;;;;;3.42;100.00;99868.84;5053229;28;20406;-70
2020/12/31 11:18:41;;;;;;;;;;;;;;;3.50;100.00;99855.78;5053693;28;19932;-70
2020/12/31 11:21:07;;;;;;;;;;;;;;;3.70;100.00;99865.19;5052605;28;19933;-69
2020/12/31 11:23:33;;;;;;;;;;;;;;;3.75;100.00;99855.03;5033504;28;19944;-70
2020/12/31 11:25:58;;;;;;;;;;;;;;;3.84;100.00;99857.09;5048246;28;19960;-70
2020/12/31 11:28:25;;;;;;;;;;;;;;;4.04;100.00;99844.16;5051509;28;19924;-70
2020/12/31 11:30:50;;;;;;;;;;;;;;;3.98;100.00;99839.19;5052935;28;19940;-69
2020/12/31 11:33:16;;;;;;;;;;;;;;;4.24;100.00;99839.25;5053556;28;19929;-70
2020/12/31 11:35:43;;;;;;;;;;;;;;;3.92;100.00;99832.41;5049745;28;20405;-70
2020/12/31 11:38:09;;;;;;;;;;;;;;;3.89;100.00;99831.75;5044874;28;19964;-70
2020/12/31 11:40:35;;;;;;;;;;;;;;;3.94;100.00;99824.25;5053295;28;19932;-70
2020/12/31 11:43:01;;;;;;;;;;;;;;;4.26;100.00;99827.44;5052887;28;20047;-70
2020/12/31 11:45:26;;;;;;;;;;;;;;;4.40;100.00;99815.72;5053209;28;20310;-70
2020/12/31 11:47:52;;;;;;;;;;;;;;;4.41;100.00;99817.44;5052654;28;19924;-70
2020/12/31 11:50:18;;;;;;;;;;;;;;;4.46;100.00;99814.41;5053101;28;19947;-70
2020/12/31 11:52:45;;;;;;;;;;;;;;;4.62;100.00;99819.56;5052757;28;19925;-70
2020/12/31 11:55:11;;;;;;;;;;;;;;;4.66;100.00;99810.31;5053079;28;19964;-70
2020/12/31 11:57:36;;;;;;;;;;;;;;;4.77;100.00;99823.88;5052535;28;20412;-69
2020/12/31 12:00:03;;;;;;;;;;;;;;;4.64;100.00;99818.50;5051919;28;19925;-71
2020/12/31 12:02:30;;;;;;;;;;;;;;;4.63;100.00;99818.59;5052386;28;20019;-71
2020/12/31 12:04:56;;;;;;;;;;;;;;;4.69;100.00;99819.03;5052880;28;19932;-70
2020/12/31 12:07:22;;;;;;;;;;;;;;;4.71;100.00;99821.59;5052261;28;20390;-70
2020/12/31 12:09:48;;;;;;;;;;;;;;;4.64;100.00;99820.34;5052521;28;19948;-70
2020/12/31 12:12:14;;;;;;;;;;;;;;;4.51;100.00;99815.81;5052398;28;19979;-70
2020/12/31 12:14:40;;;;;;;;;;;;;;;4.62;100.00;99820.44;5052576;28;19924;-70
2020/12/31 12:17:06;;;;;;;;;;;;;;;4.75;100.00;99825.78;5052173;28;19925;-70
2020/12/31 12:19:31;;;;;;;;;;;;;;;4.66;100.00;99818.38;5051608;28;19928;-70
2020/12/31 12:21:58;;;;;;;;;;;;;;;4.49;100.00;99816.88;5052309;28;19924;-70
2020/12/31 12:24:23;;;;;;;;;;;;;;;4.52;100.00;99816.69;5052430;28;19925;-70
2020/12/31 12:26:50;;;;;;;;;;;;;;;4.51;100.00;99810.44;5052118;28;19947;-70
2020/12/31 12:29:16;;;;;;;;;;;;;;;4.45;100.00;99810.00;5051719;28;19964;-70
2020/12/31 12:31:41;;;;;;;;;;;;;;;4.60;100.00;99810.78;5051956;28;19960;-70
2020/12/31 12:34:07;;;;;;;;;;;;;;;4.57;100.00;99808.28;5052073;28;20398;-70
2020/12/31 12:36:33;;;;;;;;;;;;;;;4.28;100.00;99816.56;5051748;28;19979;-70
2020/12/31 12:38:59;;;;;;;;;;;;;;;4.33;100.00;99809.06;5051784;28;19935;-70
2020/12/31 12:41:25;;;;;;;;;;;;;;;4.19;100.00;99810.00;5052257;28;20012;-70
2020/12/31 12:43:52;;;;;;;;;;;;;;;4.16;100.00;99818.28;5052080;28;20348;-70